Time;durP1;ratioP1;P1;durP2;ratioP2;P2;SDS_P1;SDS_P2;PMS_P1;PMS_P2;Temp;Humidity;BMP_temperature;BMP_pressure;BME280_temperature;BME280_humidity;BME280_pressure;Samples;Min_cycle;Max_cycle;Signal;HPM_P1;HPM_P2
2022/04/10 00:01:30;;;;;;;;;13.75;10.00;;;;;8.20;55.34;101471.16;4988651;27;46005;-56
2022/04/10 00:03:56;;;;;;;;;12.50;8.75;;;;;8.21;55.77;101476.44;4974166;28;46246;-56
2022/04/10 00:06:23;;;;;;;;;13.00;9.75;;;;;8.19;55.90;101467.63;4961974;28;45628;-59
2022/04/10 00:08:48;;;;;;;;;15.00;10.00;;;;;8.16;55.66;101462.44;4971692;28;45368;-57
2022/04/10 00:11:13;;;;;;;;;11.25;10.50;;;;;8.06;55.61;101449.53;4955316;28;45594;-56
2022/04/10 00:13:39;;;;;;;;;13.75;13.00;;;;;8.09;55.33;101468.88;4963695;28;45999;-56
2022/04/10 00:16:05;;;;;;;;;18.25;11.50;;;;;8.12;56.62;101465.25;4968425;28;45280;-56
2022/04/10 00:18:31;;;;;;;;;12.50;12.50;;;;;8.08;55.99;101448.59;4973042;28;45558;-57
2022/04/10 00:20:57;;;;;;;;;13.00;10.75;;;;;8.07;56.40;101449.47;4957665;28;45717;-58
2022/04/10 00:23:22;;;;;;;;;14.00;14.00;;;;;8.03;55.62;101449.63;4973848;28;46241;-57
2022/04/10 00:25:48;;;;;;;;;14.00;14.00;;;;;8.04;56.21;101457.53;4967059;28;45334;-57
2022/04/10 00:28:13;;;;;;;;;14.00;11.50;;;;;8.03;55.24;101449.63;4954993;28;45417;-56
2022/04/10 00:30:38;;;;;;;;;14.00;13.50;;;;;8.02;55.87;101463.81;4964140;28;45609;-56
2022/04/10 00:33:04;;;;;;;;;14.00;12.25;;;;;8.00;55.44;101461.22;4973363;27;46192;-56
2022/04/10 00:35:30;;;;;;;;;16.75;14.75;;;;;7.91;55.92;101453.53;4970692;28;45535;-57
2022/04/10 00:37:55;;;;;;;;;18.75;18.75;;;;;7.89;56.02;101455.38;4954965;28;45268;-57
2022/04/10 00:40:21;;;;;;;;;13.50;13.50;;;;;7.84;56.04;101460.81;4963670;28;45532;-57
2022/04/10 00:42:48;;;;;;;;;19.00;16.75;;;;;7.81;56.61;101452.97;4966744;28;45634;-56
2022/04/10 00:45:14;;;;;;;;;16.00;14.00;;;;;7.76;56.34;101449.59;4990767;27;45369;-56
2022/04/10 00:47:39;;;;;;;;;18.75;16.75;;;;;7.81;56.98;101454.72;4972447;28;45516;-57
2022/04/10 00:50:07;;;;;;;;;17.00;17.00;;;;;7.82;56.78;101459.16;4969406;28;45350;-58
2022/04/10 00:52:34;;;;;;;;;14.25;13.25;;;;;7.79;57.35;101456.56;4970414;28;47483;-57
2022/04/10 00:55:00;;;;;;;;;9.50;9.50;;;;;7.74;56.81;101453.19;4973903;28;45448;-56
2022/04/10 00:57:25;;;;;;;;;18.00;18.00;;;;;7.68;57.49;101448.94;4976206;28;45335;-55
2022/04/10 00:59:52;;;;;;;;;20.50;16.50;;;;;7.72;57.37;101461.19;4970083;28;45461;-57
2022/04/10 01:02:18;;;;;;;;;19.50;17.75;;;;;7.64;57.65;101448.19;4954359;28;46588;-57
2022/04/10 01:04:46;;;;;;;;;15.75;14.75;;;;;7.70;56.94;101457.72;4954575;28;45387;-57
2022/04/10 01:07:13;;;;;;;;;17.50;17.50;;;;;7.64;57.87;101457.91;5006249;27;45298;-57
2022/04/10 01:09:40;;;;;;;;;18.75;16.75;;;;;7.66;58.48;101456.06;4976594;27;45415;-56
2022/04/10 01:12:07;;;;;;;;;20.50;19.25;;;;;7.65;58.49;101452.56;4971404;28;46276;-57
2022/04/10 01:14:36;;;;;;;;;23.50;17.75;;;;;7.63;58.46;101449.09;4967790;28;45542;-57
2022/04/10 01:17:02;;;;;;;;;15.50;11.75;;;;;7.65;58.19;101455.22;4954811;28;45407;-57
2022/04/10 01:19:28;;;;;;;;;17.50;16.50;;;;;7.69;57.26;101456.88;4972901;28;45710;-57
2022/04/10 01:21:59;;;;;;;;;16.75;12.50;;;;;7.67;57.73;101456.03;4956220;28;46134;-57
2022/04/10 01:24:25;;;;;;;;;16.25;16.00;;;;;7.67;57.59;101458.66;4952922;28;45320;-56
2022/04/10 01:26:51;;;;;;;;;21.00;18.25;;;;;7.59;56.81;101450.13;4978775;28;45356;-56
2022/04/10 01:29:16;;;;;;;;;17.00;13.25;;;;;7.57;56.74;101454.59;4975459;27;45322;-57
2022/04/10 01:31:44;;;;;;;;;20.50;16.25;;;;;7.50;57.91;101439.78;4969343;28;46348;-57
2022/04/10 01:34:13;;;;;;;;;15.00;15.00;;;;;7.45;57.36;101432.91;4956513;28;45533;-57
2022/04/10 01:36:39;;;;;;;;;21.75;17.75;;;;;7.55;58.06;101452.88;4973487;28;45220;-56
2022/04/10 01:39:07;;;;;;;;;14.00;11.50;;;;;7.52;58.27;101443.25;4955427;28;45731;-57
2022/04/10 01:41:36;;;;;;;;;21.00;17.00;;;;;7.57;57.94;101448.44;4953432;28;46185;-55
2022/04/10 01:44:04;;;;;;;;;22.75;16.00;;;;;7.56;58.25;101450.22;4961815;28;45542;-57
2022/04/10 01:46:30;;;;;;;;;18.00;14.25;;;;;7.54;57.95;101444.06;4971559;28;45276;-56
2022/04/10 01:48:57;;;;;;;;;16.00;16.00;;;;;7.53;57.67;101444.13;4956909;28;46872;-57
2022/04/10 01:51:23;;;;;;;;;17.50;16.50;;;;;7.46;57.29;101432.88;4952247;28;45975;-60
2022/04/10 01:53:49;;;;;;;;;14.75;13.00;;;;;7.49;57.62;101431.91;4959140;28;45553;-57
2022/04/10 01:56:14;;;;;;;;;13.25;13.25;;;;;7.51;56.52;101441.53;4990922;28;45477;-57
2022/04/10 01:58:42;;;;;;;;;13.75;13.50;;;;;7.50;57.22;101436.28;4972726;28;45319;-57
2022/04/10 02:01:10;;;;;;;;;14.25;14.25;;;;;7.49;57.13;101431.91;4970984;28;45437;-56
2022/04/10 02:03:36;;;;;;;;;17.75;14.00;;;;;7.45;56.30;101436.44;4971410;28;45249;-56
2022/04/10 02:06:03;;;;;;;;;20.75;15.00;;;;;7.37;56.61;101438.41;4975131;28;45580;-57
2022/04/10 02:08:30;;;;;;;;;14.50;14.50;;;;;7.36;57.40;101436.69;4965661;28;45524;-57
2022/04/10 02:10:56;;;;;;;;;19.25;16.00;;;;;7.32;57.27;101435.91;4957060;28;46362;-57
2022/04/10 02:13:23;;;;;;;;;17.25;16.00;;;;;7.31;57.58;101435.97;4984685;28;45353;-57
2022/04/10 02:15:48;;;;;;;;;17.00;15.75;;;;;7.27;57.47;101432.53;4966228;28;45513;-57
2022/04/10 02:18:14;;;;;;;;;17.25;16.25;;;;;7.33;57.68;101439.44;4963144;28;45550;-57
2022/04/10 02:20:40;;;;;;;;;20.50;16.50;;;;;7.30;57.62;101436.88;4975599;28;45306;-56
2022/04/10 02:23:06;;;;;;;;;16.00;13.50;;;;;7.31;58.37;101441.25;4973594;28;45402;-56
2022/04/10 02:25:31;;;;;;;;;16.25;12.25;;;;;7.32;58.15;101445.63;4981395;28;45307;-55
2022/04/10 02:27:57;;;;;;;;;16.25;14.25;;;;;7.13;58.14;101410.03;4961260;27;45666;-57
2022/04/10 02:30:22;;;;;;;;;13.50;13.50;;;;;7.31;57.60;101444.78;4959829;28;45406;-58
2022/04/10 02:32:48;;;;;;;;;13.00;13.00;;;;;7.31;57.77;101438.59;4973814;28;45503;-57
2022/04/10 02:35:14;;;;;;;;;15.50;13.00;;;;;7.19;57.75;101433.66;4968847;28;45309;-56
2022/04/10 02:37:40;;;;;;;;;21.75;17.50;;;;;7.18;58.61;101446.03;4961253;28;45325;-57
2022/04/10 02:40:07;;;;;;;;;19.25;17.50;;;;;7.13;58.20;101444.41;4963531;28;46147;-57
2022/04/10 02:42:36;;;;;;;;;22.25;20.50;;;;;7.03;58.49;101439.41;4968503;28;45494;-56
2022/04/10 02:45:03;;;;;;;;;16.50;11.50;;;;;7.04;57.85;101451.72;4965481;28;45266;-61
2022/04/10 02:47:32;;;;;;;;;18.25;16.00;;;;;7.05;58.61;101447.28;4972375;28;45543;-56
2022/04/10 02:49:57;;;;;;;;;16.75;15.25;;;;;7.03;59.07;101447.34;4993588;28;47108;-57
2022/04/10 02:52:23;;;;;;;;;18.00;14.25;;;;;7.02;58.23;101448.22;4981815;28;45452;-57
2022/04/10 02:54:48;;;;;;;;;17.75;15.00;;;;;7.03;58.02;101447.34;4958435;28;45529;-57
2022/04/10 02:57:14;;;;;;;;;16.50;16.50;;;;;6.99;57.98;101445.66;4969806;28;45255;-57
2022/04/10 02:59:39;;;;;;;;;13.25;13.25;;;;;7.00;58.07;101451.81;4958337;28;45398;-56
2022/04/10 03:02:05;;;;;;;;;9.00;8.00;;;;;6.98;56.47;101445.72;4970006;28;45269;-57
2022/04/10 03:04:30;;;;;;;;;12.25;12.00;;;;;6.94;57.03;101444.94;4974457;28;45228;-56
2022/04/10 03:06:56;;;;;;;;;17.50;14.25;;;;;6.87;56.97;101443.34;4983633;28;45635;-58
2022/04/10 03:09:21;;;;;;;;;22.25;17.00;;;;;6.89;57.96;101449.47;4972571;27;45492;-57
2022/04/10 03:11:47;;;;;;;;;19.50;14.75;;;;;6.87;58.29;101459.22;4964338;28;45192;-56
2022/04/10 03:14:13;;;;;;;;;21.25;20.00;;;;;6.70;58.11;101440.31;4955995;28;45235;-58
2022/04/10 03:16:39;;;;;;;;;22.25;17.00;;;;;6.77;58.22;101455.06;4971783;28;45429;-57
2022/04/10 03:19:04;;;;;;;;;20.75;17.00;;;;;6.76;58.87;101454.22;4975754;28;45674;-56
2022/04/10 03:21:29;;;;;;;;;19.75;15.75;;;;;6.75;58.29;101459.53;4959220;28;45358;-57
2022/04/10 03:23:55;;;;;;;;;18.50;16.00;;;;;6.76;58.68;101456.00;4971836;28;45509;-56
2022/04/10 03:26:21;;;;;;;;;19.00;19.00;;;;;6.73;58.88;101456.94;4966888;28;45917;-56
2022/04/10 03:28:46;;;;;;;;;22.75;17.25;;;;;6.62;58.96;101440.50;4970632;28;45442;-56
2022/04/10 03:31:12;;;;;;;;;16.50;16.50;;;;;6.72;58.58;101462.28;4955565;28;45387;-57
2022/04/10 03:33:37;;;;;;;;;18.50;18.25;;;;;6.72;58.93;101467.56;4954623;28;45748;-57
2022/04/10 03:36:05;;;;;;;;;20.00;17.25;;;;;6.69;59.30;101451.78;4982587;28;45638;-57
2022/04/10 03:38:31;;;;;;;;;17.00;16.00;;;;;6.77;60.05;101463.00;4968221;28;46587;-56
2022/04/10 03:40:57;;;;;;;;;19.00;17.50;;;;;6.74;59.06;101457.81;4969599;28;45285;-57
2022/04/10 03:43:23;;;;;;;;;16.25;15.25;;;;;6.69;59.03;101444.72;4969928;28;45308;-57
2022/04/10 03:45:48;;;;;;;;;19.50;15.00;;;;;6.68;59.61;101458.84;4961610;28;45442;-58
2022/04/10 03:48:13;;;;;;;;;19.50;17.00;;;;;6.70;60.10;101453.53;4986296;28;45944;-57
2022/04/10 03:50:39;;;;;;;;;21.00;18.50;;;;;6.71;60.22;101463.19;4966650;28;45447;-58
2022/04/10 03:53:05;;;;;;;;;17.25;17.25;;;;;6.70;59.69;101454.38;4967540;28;45486;-57
2022/04/10 03:55:31;;;;;;;;;21.25;19.75;;;;;6.79;59.93;101466.50;4973329;28;45516;-56
2022/04/10 03:57:56;;;;;;;;;15.25;14.50;;;;;6.71;60.25;101444.69;4963947;28;46069;-57
2022/04/10 04:00:22;;;;;;;;;20.00;19.00;;;;;6.78;59.80;101462.13;4957561;28;46032;-58
2022/04/10 04:02:48;;;;;;;;;21.00;18.00;;;;;6.78;60.40;101459.47;4960322;28;45485;-56
2022/04/10 04:05:14;;;;;;;;;16.75;15.75;;;;;6.78;60.39;101464.78;4966522;28;45519;-57
2022/04/10 04:07:40;;;;;;;;;19.50;18.50;;;;;6.77;60.50;101466.56;4969927;28;46308;-56
2022/04/10 04:10:07;;;;;;;;;17.75;16.00;;;;;6.73;61.11;101450.78;4961417;28;45540;-58
2022/04/10 04:12:37;;;;;;;;;18.50;18.50;;;;;6.70;60.37;101449.09;4971324;28;45506;-57
2022/04/10 04:15:03;;;;;;;;;24.50;19.50;;;;;6.77;60.11;101452.44;4972050;28;45534;-56
2022/04/10 04:17:29;;;;;;;;;16.75;16.00;;;;;6.75;60.28;101448.97;4955096;28;46229;-58
2022/04/10 04:19:55;;;;;;;;;21.25;20.00;;;;;6.74;60.05;101448.09;4955449;28;45307;-60
2022/04/10 04:22:20;;;;;;;;;16.25;15.75;;;;;6.68;60.01;101450.91;4968592;28;45527;-57
2022/04/10 04:24:46;;;;;;;;;22.75;19.25;;;;;6.69;60.39;101454.44;4955315;28;45587;-58
2022/04/10 04:27:12;;;;;;;;;30.25;24.00;;;;;6.64;61.30;101451.91;4954956;28;45339;-56
2022/04/10 04:29:38;;;;;;;;;28.00;24.50;;;;;6.59;60.83;101460.84;4953583;28;45284;-63
2022/04/10 04:32:03;;;;;;;;;29.25;26.00;;;;;6.63;61.65;101459.84;4971061;28;45285;-56
2022/04/10 04:34:29;;;;;;;;;30.00;24.75;;;;;6.62;61.27;101461.63;4971153;28;45530;-57
2022/04/10 04:36:55;;;;;;;;;27.00;25.00;;;;;6.52;61.69;101452.22;4976499;28;48178;-57
2022/04/10 04:39:20;;;;;;;;;37.75;24.00;;;;;6.59;61.72;101467.00;4982823;28;45631;-57
2022/04/10 04:41:46;;;;;;;;;25.50;25.00;;;;;6.60;61.95;101463.47;4974087;28;45448;-56
2022/04/10 04:44:11;;;;;;;;;20.75;19.50;;;;;6.58;62.24;101478.50;4952953;28;45680;-57
2022/04/10 04:46:37;;;;;;;;;27.00;25.75;;;;;6.58;61.83;101482.91;4981501;28;46734;-55
2022/04/10 04:49:03;;;;;;;;;26.75;24.75;;;;;6.46;61.98;101466.44;4954566;28;45437;-57
2022/04/10 04:51:29;;;;;;;;;31.25;28.00;;;;;6.56;62.73;101490.00;4975548;27;45271;-57
2022/04/10 04:53:55;;;;;;;;;27.00;26.00;;;;;6.41;62.36;101475.41;4955302;28;45261;-55
2022/04/10 04:56:21;;;;;;;;;24.25;24.25;;;;;6.53;62.63;101496.25;4962122;28;46111;-56
2022/04/10 04:58:49;;;;;;;;;29.75;25.00;;;;;6.50;62.93;101491.00;4963798;28;46381;-56
2022/04/10 05:01:15;;;;;;;;;31.00;30.75;;;;;6.59;62.44;101501.38;4959838;28;45535;-56
2022/04/10 05:03:41;;;;;;;;;24.25;24.25;;;;;6.55;63.40;101483.00;4955139;28;45395;-56
2022/04/10 05:06:06;;;;;;;;;26.50;26.50;;;;;6.64;62.61;101510.06;4971245;28;46875;-56
2022/04/10 05:08:31;;;;;;;;;29.00;24.00;;;;;6.62;62.86;101498.63;5001093;28;45521;-56
2022/04/10 05:10:59;;;;;;;;;27.75;24.25;;;;;6.60;63.22;101502.22;4966672;28;45351;-56
2022/04/10 05:13:24;;;;;;;;;29.25;25.25;;;;;6.60;62.80;101505.75;4974208;28;45185;-57
2022/04/10 05:15:50;;;;;;;;;33.75;26.00;;;;;6.57;62.82;101503.19;4973807;28;45452;-61
2022/04/10 05:18:17;;;;;;;;;33.00;27.75;;;;;6.54;63.44;101494.47;4973750;28;45168;-58
2022/04/10 05:20:43;;;;;;;;;23.50;23.50;;;;;6.53;63.13;101508.59;4964856;28;45407;-57
2022/04/10 05:23:09;;;;;;;;;33.25;29.25;;;;;6.47;63.45;101513.09;4961204;28;45781;-58
2022/04/10 05:25:36;;;;;;;;;32.50;30.00;;;;;6.43;63.55;101510.59;4959841;28;45586;-56
2022/04/10 05:28:01;;;;;;;;;32.00;30.00;;;;;6.40;64.08;101508.91;4973124;28;45349;-57
2022/04/10 05:30:27;;;;;;;;;19.00;16.75;;;;;6.36;64.58;101506.34;4966468;28;45497;-57
2022/04/10 05:32:52;;;;;;;;;34.25;31.25;;;;;6.35;63.79;101512.53;4973692;28;45634;-56
2022/04/10 05:35:19;;;;;;;;;36.75;30.75;;;;;6.31;64.34;101514.38;4958090;28;46206;-57
2022/04/10 05:37:44;;;;;;;;;37.75;33.75;;;;;6.19;64.63;101501.47;4965877;28;45303;-56
2022/04/10 05:40:10;;;;;;;;;30.25;29.75;;;;;6.30;64.02;101523.22;4969131;28;45240;-56
2022/04/10 05:42:43;;;;;;;;;32.50;30.50;;;;;6.29;64.53;101539.97;4957419;28;45703;-58
2022/04/10 05:45:09;;;;;;;;;33.50;30.00;;;;;6.27;65.16;101531.22;4958125;28;45549;-56
2022/04/10 05:47:36;;;;;;;;;32.00;32.00;;;;;6.23;64.91;101534.81;4957740;28;45177;-56
2022/04/10 05:50:03;;;;;;;;;32.00;29.25;;;;;6.21;65.67;101539.28;4957468;28;45460;-56
2022/04/10 05:52:29;;;;;;;;;39.00;32.25;;;;;6.21;65.04;101529.56;4968631;28;45523;-57
2022/04/10 05:55:00;;;;;;;;;34.25;30.00;;;;;6.19;65.68;101538.44;4967698;28;47852;-57
2022/04/10 05:57:26;;;;;;;;;40.00;36.00;;;;;6.19;65.48;101543.72;4957022;28;45316;-57
2022/04/10 05:59:51;;;;;;;;;43.75;33.75;;;;;6.24;65.88;101546.25;4977068;28;45251;-60
2022/04/10 06:02:17;;;;;;;;;43.00;40.00;;;;;6.24;65.17;101546.25;4982144;27;45400;-59
2022/04/10 06:04:43;;;;;;;;;33.50;29.75;;;;;6.23;65.19;101540.09;4976110;28;45971;-59
2022/04/10 06:07:08;;;;;;;;;34.25;32.00;;;;;6.29;65.30;101542.63;4992593;28;45747;-57
2022/04/10 06:09:34;;;;;;;;;39.00;36.00;;;;;6.30;65.17;101544.34;4966367;27;45797;-56
2022/04/10 06:11:59;;;;;;;;;42.00;40.25;;;;;6.32;64.98;101546.97;4957605;28;46423;-56
2022/04/10 06:14:24;;;;;;;;;33.25;33.25;;;;;6.31;66.17;101547.88;4964127;28;46359;-57
2022/04/10 06:16:50;;;;;;;;;41.50;36.50;;;;;6.30;65.89;101557.56;4975701;28;45435;-56
2022/04/10 06:19:16;;;;;;;;;39.00;31.50;;;;;6.32;65.80;101554.88;4969368;28;45698;-58
2022/04/10 06:21:42;;;;;;;;;43.25;36.75;;;;;6.33;66.08;101560.13;4988978;28;45514;-58
2022/04/10 06:24:07;;;;;;;;;42.75;40.00;;;;;6.32;65.92;101555.75;4976203;28;45480;-58
2022/04/10 06:26:33;;;;;;;;;38.25;34.50;;;;;6.28;65.87;101554.09;4966140;28;46887;-59
2022/04/10 06:28:58;;;;;;;;;45.25;41.00;;;;;6.30;65.58;101556.69;4957065;28;45355;-57
2022/04/10 06:31:24;;;;;;;;;38.00;36.25;;;;;6.30;66.63;101560.19;4964849;28;45367;-57
2022/04/10 06:33:50;;;;;;;;;45.00;41.25;;;;;6.30;66.16;101557.56;4977729;28;45433;-62
2022/04/10 06:36:16;;;;;;;;;47.00;38.50;;;;;6.30;66.32;101549.63;4964772;28;45490;-55
2022/04/10 06:38:42;;;;;;;;;42.00;35.00;;;;;6.33;66.76;101552.19;4956581;28;45267;-57
2022/04/10 06:41:07;;;;;;;;;41.50;36.00;;;;;6.32;65.97;101549.59;4958479;28;45292;-57
2022/04/10 06:43:33;;;;;;;;;42.00;40.00;;;;;6.37;66.27;101564.44;4957983;28;46072;-57
2022/04/10 06:45:58;;;;;;;;;41.75;36.75;;;;;6.39;66.34;101552.06;4956158;28;45821;-56
2022/04/10 06:48:23;;;;;;;;;56.75;44.00;;;;;6.40;66.48;101559.09;4958268;28;45539;-57
2022/04/10 06:50:49;;;;;;;;;43.75;41.00;;;;;6.44;66.15;101557.25;4962233;28;45574;-56
2022/04/10 06:53:15;;;;;;;;;50.75;43.75;;;;;6.43;66.20;101556.38;4955898;28;45476;-58
2022/04/10 06:55:40;;;;;;;;;47.75;42.50;;;;;6.33;65.97;101532.84;4957388;28;45458;-58
2022/04/10 06:58:06;;;;;;;;;45.75;38.00;;;;;6.53;66.10;101559.69;4975712;28;45389;-57
2022/04/10 07:00:32;;;;;;;;;48.00;43.50;;;;;6.59;66.03;101554.22;4975731;27;45670;-55
2022/04/10 07:03:01;;;;;;;;;58.00;45.00;;;;;6.67;65.50;101554.91;4956297;28;45414;-58
2022/04/10 07:05:27;;;;;;;;;48.25;41.50;;;;;6.72;65.33;101557.44;4966193;28;45423;-56
2022/04/10 07:07:55;;;;;;;;;43.75;39.25;;;;;6.75;64.86;101549.44;4969066;28;45528;-58
2022/04/10 07:10:21;;;;;;;;;42.75;38.25;;;;;6.80;65.52;101547.56;4970328;28;45495;-57
2022/04/10 07:12:46;;;;;;;;;52.25;44.25;;;;;6.77;65.15;101537.03;4974034;28;46423;-55
2022/04/10 07:15:12;;;;;;;;;49.00;45.50;;;;;6.89;65.04;101547.28;4974187;28;45458;-55
2022/04/10 07:17:37;;;;;;;;;45.50;40.25;;;;;6.84;64.98;101533.34;4973628;28;45504;-57
2022/04/10 07:20:03;;;;;;;;;58.25;45.75;;;;;6.87;64.29;101524.44;4975118;28;45337;-57
2022/04/10 07:25:12;;;;;;;;;56.25;44.50;;;;;7.09;63.47;101545.03;4974892;28;45354;-57
2022/04/10 07:27:38;;;;;;;;;53.00;45.50;;;;;7.12;63.59;101548.47;4973041;28;45545;-57
2022/04/10 07:30:04;;;;;;;;;46.25;39.50;;;;;7.10;63.42;101551.19;4975210;28;45540;-58
2022/04/10 07:32:30;;;;;;;;;50.50;42.50;;;;;7.13;63.34;101551.09;4977295;28;47535;-62
2022/04/10 07:34:56;;;;;;;;;57.25;47.50;;;;;7.16;63.70;101544.84;4986643;28;45286;-58
2022/04/10 07:37:21;;;;;;;;;57.75;46.50;;;;;7.08;63.26;101527.41;4972903;27;45410;-58
2022/04/10 07:39:46;;;;;;;;;58.00;46.75;;;;;7.32;62.62;101554.13;4976666;28;46847;-56
2022/04/10 07:42:12;;;;;;;;;40.00;38.75;;;;;7.40;61.71;101555.63;4978726;27;45437;-58
2022/04/10 07:44:37;;;;;;;;;48.75;38.00;;;;;7.46;62.19;101536.09;4977082;27;45457;-55
2022/04/10 07:49:47;;;;;;;;;40.50;38.75;;;;;7.79;59.92;101557.19;4975134;28;45395;-57
2022/04/10 07:52:13;;;;;;;;;40.25;37.50;;;;;7.88;60.52;101557.81;4975454;28;45537;-57
2022/04/10 07:54:39;;;;;;;;;43.00;40.50;;;;;7.98;60.18;101550.47;4974419;28;45240;-58
2022/04/10 07:57:05;;;;;;;;;46.00;41.50;;;;;8.09;60.62;101542.19;4972770;28;45510;-57
2022/04/10 07:59:31;;;;;;;;;49.75;43.00;;;;;8.13;60.50;101536.75;4974747;28;45531;-58
2022/04/10 08:01:56;;;;;;;;;58.25;42.75;;;;;8.25;60.19;101548.75;4970781;27;45435;-57
2022/04/10 08:04:22;;;;;;;;;65.50;47.00;;;;;8.29;60.27;101538.00;4973363;28;45417;-56
2022/04/10 08:06:47;;;;;;;;;57.25;44.25;;;;;8.39;59.66;101537.75;4986987;28;45321;-58
2022/04/10 08:09:13;;;;;;;;;45.00;42.75;;;;;8.48;59.67;101548.06;5077088;27;45529;-56
2022/04/10 08:11:39;;;;;;;;;48.50;42.00;;;;;8.59;58.41;101559.16;5075514;27;46844;-57
2022/04/10 08:14:05;;;;;;;;;43.25;36.00;;;;;8.64;57.70;101553.72;5028399;27;45290;-56
2022/04/10 08:16:31;;;;;;;;;38.25;38.25;;;;;8.72;57.77;101549.88;4992746;27;45373;-57
2022/04/10 08:18:57;;;;;;;;;39.00;37.00;;;;;8.77;57.01;101550.63;4956962;28;45550;-56
2022/04/10 08:21:22;;;;;;;;;13.75;10.00;;;;;8.82;53.70;101548.66;4970434;28;45282;-57
2022/04/10 08:23:48;;;;;;;;;9.25;9.25;;;;;8.81;52.63;101544.28;4975278;27;46645;-57
2022/04/10 08:26:13;;;;;;;;;10.50;8.50;;;;;8.78;50.63;101525.81;4974570;28;45474;-58
2022/04/10 08:28:39;;;;;;;;;9.00;6.50;;;;;8.76;51.43;101506.44;4988990;27;45498;-58
2022/04/10 08:31:04;;;;;;;;;6.75;6.25;;;;;9.08;51.75;101549.56;4994158;27;45371;-59
2022/04/10 08:33:30;;;;;;;;;7.00;7.00;;;;;9.18;51.21;101548.34;4974955;27;45372;-57
2022/04/10 08:35:56;;;;;;;;;9.25;9.25;;;;;9.28;50.04;101548.88;4975016;28;45701;-56
2022/04/10 08:38:22;;;;;;;;;4.50;4.50;;;;;9.26;48.69;101522.41;4977933;28;45575;-59
2022/04/10 08:40:49;;;;;;;;;8.25;8.25;;;;;9.53;48.65;101519.66;4957215;28;45434;-59
2022/04/10 08:43:17;;;;;;;;;10.75;7.00;;;;;9.85;47.89;101545.88;4974129;28;45438;-58
2022/04/10 08:45:43;;;;;;;;;6.75;6.75;;;;;10.10;48.42;101543.16;4973597;28;45435;-58
2022/04/10 08:48:10;;;;;;;;;11.00;7.00;;;;;10.33;47.80;101550.25;4984907;28;45506;-58
2022/04/10 08:50:37;;;;;;;;;8.25;8.25;;;;;10.53;46.59;101542.31;4973583;28;45321;-59
2022/04/10 08:53:04;;;;;;;;;6.50;6.00;;;;;10.66;47.43;101525.84;4973617;28;45370;-58
2022/04/10 08:55:30;;;;;;;;;6.50;6.50;;;;;10.93;46.97;101528.22;4973875;28;45441;-57
2022/04/10 08:57:55;;;;;;;;;7.75;6.50;;;;;11.22;47.91;101537.63;4974154;28;45149;-58
2022/04/10 09:00:23;;;;;;;;;7.50;7.50;;;;;11.48;43.60;101543.63;4973673;28;45938;-56
2022/04/10 09:02:50;;;;;;;;;5.25;5.00;;;;;11.65;45.17;101546.38;4972091;28;45839;-59
2022/04/10 09:05:25;;;;;;;;;7.00;6.75;;;;;11.92;45.56;101538.09;4971401;28;48058;-58
2022/04/10 09:08:11;;;;;;;;;9.75;8.75;;;;;12.13;42.66;101541.56;4973038;28;45395;-58
2022/04/10 09:10:52;;;;;;;;;10.50;8.75;;;;;12.33;43.35;101538.78;4988984;28;47062;-57
2022/04/10 09:13:28;;;;;;;;;11.25;7.75;;;;;12.66;44.04;101541.63;4976929;28;45432;-59
2022/04/10 09:16:15;;;;;;;;;7.00;7.00;;;;;12.90;44.08;101544.88;4988457;28;45272;-57
2022/04/10 09:18:49;;;;;;;;;10.00;8.67;;;;;13.27;43.85;101538.50;4995220;27;45341;-57
2022/04/10 09:21:16;;;;;;;;;9.00;7.67;;;;;13.55;42.83;101517.44;4975368;28;45361;-59
2022/04/10 09:23:46;;;;;;;;;8.67;7.67;;;;;14.02;42.79;101524.66;4967231;27;45336;-57
2022/04/10 09:26:13;;;;;;;;;5.67;5.67;;;;;14.39;41.59;101525.25;4972431;28;45388;-54
2022/04/10 09:28:44;;;;;;;;;9.00;9.00;;;;;14.68;40.92;101513.75;4976720;28;45350;-56
2022/04/10 09:31:36;;;;;;;;;4.67;3.00;;;;;14.96;38.91;101514.78;4974857;28;45440;-55
2022/04/10 09:34:06;;;;;;;;;8.33;8.00;;;;;15.24;37.59;101516.69;5065111;27;45350;-56
2022/04/10 09:36:40;;;;;;;;;6.00;6.00;;;;;15.31;35.88;101500.13;4981831;27;45219;-58
2022/04/10 09:39:32;;;;;;;;;6.67;5.00;;;;;15.57;34.88;101524.47;4965203;28;45536;-57
2022/04/10 09:42:06;;;;;;;;;9.00;5.33;;;;;15.74;38.18;101531.47;4957847;28;45393;-56
2022/04/10 09:44:33;;;;;;;;;9.00;9.00;;;;;15.85;36.74;101526.31;4980218;28;45471;-59
2022/04/10 09:47:01;;;;;;;;;8.00;8.00;;;;;15.77;35.34;101516.09;4987823;27;45341;-59
2022/04/10 09:49:32;;;;;;;;;8.33;6.67;;;;;15.80;37.52;101520.38;4975206;28;45481;-58
2022/04/10 09:51:59;;;;;;;;;8.00;8.00;;;;;15.75;35.47;101525.16;4975295;28;45455;-60
2022/04/10 09:54:25;;;;;;;;;8.33;5.33;;;;;15.81;36.96;101517.59;4976410;28;45511;-59
2022/04/10 09:56:54;;;;;;;;;8.00;8.00;;;;;15.53;34.95;101509.53;4974349;28;45299;-59
2022/04/10 09:59:27;;;;;;;;;7.00;6.33;;;;;15.52;36.85;101503.31;4993426;28;45481;-59
2022/04/10 10:01:54;;;;;;;;;10.33;8.33;;;;;15.62;36.69;101520.59;4977294;28;45397;-57
2022/04/10 10:04:20;;;;;;;;;5.67;5.33;;;;;15.60;33.75;101519.81;4983478;28;45500;-59
2022/04/10 10:06:46;;;;;;;;;5.33;5.33;;;;;15.08;33.62;101502.47;4990923;28;45484;-58
2022/04/10 10:09:13;;;;;;;;;9.67;8.00;;;;;14.72;35.39;101523.34;5070272;27;45400;-58
2022/04/10 10:11:40;;;;;;;;;7.00;7.00;;;;;14.63;37.90;101510.50;4972205;27;45400;-60
2022/04/10 10:14:07;;;;;;;;;6.33;6.33;;;;;14.60;35.30;101516.03;4956994;28;45280;-60
2022/04/10 10:16:34;;;;;;;;;8.00;8.00;;;;;14.53;37.54;101511.09;4970734;28;45435;-60
2022/04/10 10:19:00;;;;;;;;;7.67;7.67;;;;;14.33;37.74;101496.19;4990338;28;45560;-61
2022/04/10 10:21:26;;;;;;;;;8.33;8.00;;;;;14.20;37.73;101493.34;4975521;28;45356;-60
2022/04/10 10:23:53;;;;;;;;;7.00;7.00;;;;;14.00;37.18;101481.06;4974306;28;45347;-58
2022/04/10 10:26:40;;;;;;;;;7.33;5.00;;;;;14.02;37.58;101508.59;4975278;28;45259;-59
2022/04/10 10:29:14;;;;;;;;;5.67;5.67;;;;;13.93;37.69;101500.22;4973346;28;45219;-61
2022/04/10 10:32:02;;;;;;;;;7.33;4.00;;;;;13.71;38.76;101498.75;4976495;28;45978;-59
2022/04/10 10:34:29;;;;;;;;;11.00;4.00;;;;;13.55;38.97;101490.69;4972717;28;45357;-61
2022/04/10 10:36:54;;;;;;;;;8.67;5.00;;;;;13.44;38.47;101494.91;4995603;27;45218;-56
2022/04/10 10:39:22;;;;;;;;;3.33;3.33;;;;;13.21;39.02;101480.09;4976951;27;45560;-58
2022/04/10 10:41:51;;;;;;;;;4.00;4.00;;;;;13.35;39.14;101493.56;4974582;27;46031;-59
2022/04/10 10:44:37;;;;;;;;;4.00;4.00;;;;;13.25;39.26;101479.81;4974774;28;45464;-57
2022/04/10 10:47:04;;;;;;;;;8.33;7.67;;;;;13.23;38.42;101487.06;4974698;28;45663;-57
2022/04/10 10:49:31;;;;;;;;;8.33;4.67;;;;;13.16;36.93;101493.66;4969742;28;45286;-59
2022/04/10 10:51:58;;;;;;;;;6.33;6.33;;;;;13.12;39.14;101485.88;4990798;28;45507;-58
2022/04/10 10:54:34;;;;;;;;;11.33;9.67;;;;;13.15;38.42;101472.34;4975012;28;45453;-58
2022/04/10 10:57:24;;;;;;;;;15.50;15.25;;;;;13.23;40.14;101483.53;4974450;28;45260;-57
2022/04/10 11:00:11;;;;;;;;;8.00;6.33;;;;;13.06;39.57;101476.38;4969333;28;45369;-57
2022/04/10 11:02:38;;;;;;;;;5.67;5.67;;;;;13.19;37.87;101476.63;4973261;28;45554;-57
2022/04/10 11:05:25;;;;;;;;;9.00;8.00;;;;;13.20;36.96;101463.19;4956006;28;45434;-59
2022/04/10 11:08:00;;;;;;;;;7.67;7.67;;;;;13.30;38.57;101468.91;5025859;28;45363;-58
2022/04/10 11:10:29;;;;;;;;;5.67;5.67;;;;;13.42;38.96;101468.25;5094432;27;45384;-57
2022/04/10 11:13:01;;;;;;;;;8.00;8.00;;;;;13.35;35.78;101440.13;5078059;27;45260;-57
2022/04/10 11:15:53;;;;;;;;;12.67;8.33;;;;;13.42;38.94;101436.19;5078262;27;45254;-56
2022/04/10 11:18:36;;;;;;;;;8.00;8.00;;;;;13.55;38.03;101441.72;5090024;27;45820;-57
2022/04/10 11:21:13;;;;;;;;;7.00;5.33;;;;;13.63;37.34;101458.19;4962589;27;45553;-57
2022/04/10 11:23:41;;;;;;;;;4.33;4.00;;;;;13.69;36.50;101455.19;4974701;28;46088;-60
2022/04/10 11:26:12;;;;;;;;;1.33;1.33;;;;;13.66;37.17;101436.63;4974500;28;45236;-58